Time;durP1;ratioP1;P1;durP2;ratioP2;P2;SDS_P1;SDS_P2;PMS_P1;PMS_P2;Temp;Humidity;BMP_temperature;BMP_pressure;BME280_temperature;BME280_humidity;BME280_pressure;Samples;Min_cycle;Max_cycle;Signal;HPM_P1;HPM_P2
2023/02/20 00:00:35;;;;;;;31.40;18.05;;;;;;;;;;10406305;28;20013;-58
2023/02/20 00:05:36;;;;;;;25.17;17.10;;;;;;;;;;10406005;28;20028;-57
2023/02/20 00:10:37;;;;;;;27.13;17.80;;;;;;;;;;10397789;28;20453;-57
2023/02/20 00:15:37;;;;;;;24.65;16.45;;;;;;;;;;10406262;28;20028;-57
2023/02/20 00:20:38;;;;;;;24.50;16.02;;;;;;;;;;10408555;28;20126;-56
2023/02/20 00:25:39;;;;;;;25.75;16.67;;;;;;;;;;10407772;28;20031;-56
2023/02/20 00:30:39;;;;;;;25.38;16.50;;;;;;;;;;10412778;28;20409;-58
2023/02/20 00:35:40;;;;;;;24.20;16.10;;;;;;;;;;10412623;28;20043;-57
2023/02/20 00:40:41;;;;;;;27.45;17.17;;;;;;;;;;10412796;28;20022;-58
2023/02/20 00:45:41;;;;;;;30.70;16.70;;;;;;;;;;10395796;28;20481;-57
2023/02/20 00:50:42;;;;;;;24.85;16.00;;;;;;;;;;10412082;28;20033;-57
2023/02/20 00:55:42;;;;;;;29.33;16.02;;;;;;;;;;10412168;28;20151;-57
2023/02/20 01:00:43;;;;;;;22.20;15.10;;;;;;;;;;10412100;28;20025;-55
2023/02/20 01:05:43;;;;;;;22.00;14.82;;;;;;;;;;10411882;28;20029;-54
2023/02/20 01:10:44;;;;;;;21.80;15.07;;;;;;;;;;10403316;28;20030;-53
2023/02/20 01:15:45;;;;;;;21.70;15.35;;;;;;;;;;10410030;28;20021;-57
2023/02/20 01:20:45;;;;;;;23.13;14.88;;;;;;;;;;10410909;28;20026;-56
2023/02/20 01:25:46;;;;;;;21.60;15.98;;;;;;;;;;10411335;28;20804;-57
2023/02/20 01:30:46;;;;;;;23.55;13.70;;;;;;;;;;10410525;28;20044;-57
2023/02/20 01:35:47;;;;;;;17.95;13.90;;;;;;;;;;10406368;28;20057;-58
2023/02/20 01:40:48;;;;;;;21.90;14.63;;;;;;;;;;10388414;28;20477;-57
2023/02/20 01:45:49;;;;;;;21.02;14.20;;;;;;;;;;10407467;28;20029;-57
2023/02/20 01:50:56;;;;;;;21.10;14.02;;;;;;;;;;10410474;28;20025;-57
2023/02/20 01:56:05;;;;;;;17.90;13.15;;;;;;;;;;10407614;28;20033;-57
2023/02/20 02:01:06;;;;;;;18.30;13.85;;;;;;;;;;10408772;28;20032;-57
2023/02/20 02:06:10;;;;;;;21.17;13.18;;;;;;;;;;10409306;28;20031;-57
2023/02/20 02:11:17;;;;;;;18.45;13.35;;;;;;;;;;10407326;28;20029;-56
2023/02/20 02:16:49;;;;;;;18.88;13.43;;;;;;;;;;10408051;28;20330;-57
2023/02/20 02:22:29;;;;;;;18.13;13.88;;;;;;;;;;10408882;28;20505;-57
2023/02/20 02:27:44;;;;;;;18.77;13.48;;;;;;;;;;10408571;28;20536;-58
2023/02/20 02:33:13;;;;;;;19.98;14.10;;;;;;;;;;10405271;28;20022;-58
2023/02/20 02:38:54;;;;;;;17.08;12.70;;;;;;;;;;10404497;28;20128;-58
2023/02/20 02:44:06;;;;;;;19.38;13.32;;;;;;;;;;10395683;28;20017;-58
2023/02/20 02:49:21;;;;;;;18.42;14.57;;;;;;;;;;10407261;28;20025;-58
2023/02/20 02:54:27;;;;;;;17.33;11.82;;;;;;;;;;10407778;28;20060;-57
2023/02/20 02:59:31;;;;;;;17.08;13.10;;;;;;;;;;10408097;28;20029;-57
2023/02/20 03:04:33;;;;;;;16.30;12.52;;;;;;;;;;10407553;28;20068;-58
2023/02/20 03:09:40;;;;;;;17.95;12.82;;;;;;;;;;10406518;28;20021;-58
2023/02/20 03:20:13;;;;;;;18.13;12.85;;;;;;;;;;10407344;28;20029;-57
2023/02/20 03:25:18;;;;;;;15.60;11.50;;;;;;;;;;10407249;28;20025;-58
2023/02/20 03:30:42;;;;;;;16.75;12.40;;;;;;;;;;10404052;28;20113;-58
2023/02/20 03:46:24;;;;;;;16.13;11.57;;;;;;;;;;10403978;28;20438;-58
2023/02/20 03:56:51;;;;;;;16.20;12.25;;;;;;;;;;10411448;28;20037;-57
2023/02/20 04:01:58;;;;;;;15.43;11.45;;;;;;;;;;10413433;28;20018;-57
2023/02/20 04:07:03;;;;;;;14.75;11.27;;;;;;;;;;10413032;28;20034;-57
2023/02/20 04:12:20;;;;;;;17.27;11.52;;;;;;;;;;10414209;28;20056;-58
2023/02/20 04:17:33;;;;;;;15.25;11.82;;;;;;;;;;10413586;28;20044;-57
2023/02/20 04:22:42;;;;;;;16.65;11.48;;;;;;;;;;10412278;28;20036;-56
2023/02/20 04:27:42;;;;;;;;;;;;;;;;;;10412736;28;20487;-56
2023/02/20 04:32:43;;;;;;;14.32;10.77;;;;;;;;;;10413216;28;20004;-58
2023/02/20 04:37:44;;;;;;;12.38;10.40;;;;;;;;;;10412955;28;20044;-58
2023/02/20 04:42:45;;;;;;;14.48;11.55;;;;;;;;;;10412876;28;20030;-57
2023/02/20 04:47:45;;;;;;;14.23;10.55;;;;;;;;;;10410777;28;20021;-58
2023/02/20 04:52:46;;;;;;;14.00;10.75;;;;;;;;;;10412657;28;20472;-57
2023/02/20 04:57:47;;;;;;;15.63;11.25;;;;;;;;;;10412287;28;20034;-57
2023/02/20 05:02:48;;;;;;;15.52;10.90;;;;;;;;;;10412163;28;20033;-57
2023/02/20 05:07:57;;;;;;;13.50;10.55;;;;;;;;;;10410744;28;20473;-57
2023/02/20 05:12:57;;;;;;;;;;;;;;;;;;10399998;28;20060;-57
2023/02/20 05:17:58;;;;;;;13.18;10.40;;;;;;;;;;10411488;28;20376;-58
2023/02/20 05:22:59;;;;;;;13.02;10.88;;;;;;;;;;10411314;28;20074;-57
2023/02/20 05:27:59;;;;;;;12.98;10.55;;;;;;;;;;10411506;28;20153;-57
2023/02/20 05:33:00;;;;;;;14.68;10.63;;;;;;;;;;10411443;28;20025;-57
2023/02/20 05:38:00;;;;;;;12.75;9.75;;;;;;;;;;10410543;28;20056;-61
2023/02/20 05:43:01;;;;;;;12.88;9.93;;;;;;;;;;10410605;28;20030;-57
2023/02/20 05:48:01;;;;;;;11.32;9.25;;;;;;;;;;10408326;28;20152;-57
2023/02/20 05:53:02;;;;;;;13.82;9.55;;;;;;;;;;10410414;28;20021;-57
2023/02/20 05:58:03;;;;;;;13.50;10.45;;;;;;;;;;10408391;28;20032;-57
2023/02/20 06:03:09;;;;;;;12.77;9.43;;;;;;;;;;10402845;28;20044;-56
2023/02/20 06:08:10;;;;;;;15.55;9.82;;;;;;;;;;10409219;28;20044;-57
2023/02/20 06:13:10;;;;;;;13.13;9.20;;;;;;;;;;10407120;28;20026;-57
2023/02/20 06:18:11;;;;;;;14.20;9.63;;;;;;;;;;10406784;28;20030;-56
2023/02/20 06:23:13;;;;;;;12.70;10.13;;;;;;;;;;10407959;28;20505;-58
2023/02/20 06:28:14;;;;;;;13.50;9.85;;;;;;;;;;10408618;28;20079;-54
2023/02/20 06:33:15;;;;;;;12.73;10.07;;;;;;;;;;10407665;28;20091;-57
2023/02/20 06:38:15;;;;;;;20.50;10.55;;;;;;;;;;10408043;28;20045;-56
2023/02/20 06:43:16;;;;;;;17.95;11.13;;;;;;;;;;10406660;28;20030;-56
2023/02/20 06:48:16;;;;;;;15.05;10.43;;;;;;;;;;10406067;28;20030;-57
2023/02/20 06:53:17;;;;;;;15.60;11.27;;;;;;;;;;10407020;28;20473;-57
2023/02/20 06:58:18;;;;;;;24.73;12.05;;;;;;;;;;10403005;28;20493;-56
2023/02/20 07:03:18;;;;;;;32.30;12.38;;;;;;;;;;10400926;28;20036;-57
2023/02/20 07:08:19;;;;;;;16.00;11.50;;;;;;;;;;10406601;28;20030;-57
2023/02/20 07:13:21;;;;;;;27.08;12.73;;;;;;;;;;10407338;28;20252;-57
2023/02/20 07:18:22;;;;;;;23.75;11.90;;;;;;;;;;10406204;28;20400;-58
2023/02/20 07:23:23;;;;;;;22.70;12.52;;;;;;;;;;10406927;28;20036;-58
2023/02/20 07:28:24;;;;;;;21.50;11.52;;;;;;;;;;10407361;28;20508;-57
2023/02/20 07:33:24;;;;;;;18.77;12.63;;;;;;;;;;10414356;28;20104;-57
2023/02/20 07:38:25;;;;;;;26.40;12.07;;;;;;;;;;10413385;28;20046;-57
2023/02/20 07:43:25;;;;;;;16.10;11.00;;;;;;;;;;10414958;28;20165;-57
2023/02/20 07:48:26;;;;;;;18.20;11.57;;;;;;;;;;10412537;28;20091;-58
2023/02/20 07:53:27;;;;;;;25.55;12.48;;;;;;;;;;10414448;28;20037;-58
2023/02/20 07:58:27;;;;;;;27.98;12.02;;;;;;;;;;10414235;28;20030;-58
2023/02/20 08:03:28;;;;;;;17.67;11.70;;;;;;;;;;10414319;28;20164;-58
2023/02/20 08:08:28;;;;;;;24.08;12.15;;;;;;;;;;10414014;28;20025;-58
2023/02/20 08:13:29;;;;;;;18.52;11.18;;;;;;;;;;10413905;28;20053;-58
2023/02/20 08:18:30;;;;;;;20.35;10.68;;;;;;;;;;10414173;28;20026;-58
2023/02/20 08:23:30;;;;;;;15.93;11.30;;;;;;;;;;10413629;28;20033;-57
2023/02/20 08:28:31;;;;;;;20.35;11.20;;;;;;;;;;10413338;28;20026;-57
2023/02/20 08:33:31;;;;;;;21.35;10.95;;;;;;;;;;10413199;28;20028;-58
2023/02/20 08:38:35;;;;;;;20.05;11.15;;;;;;;;;;10412861;28;20048;-58
2023/02/20 08:43:38;;;;;;;17.90;10.40;;;;;;;;;;10412378;28;20037;-57
2023/02/20 08:48:38;;;;;;;19.45;11.77;;;;;;;;;;10409378;28;20033;-58
2023/02/20 08:53:39;;;;;;;14.65;11.18;;;;;;;;;;10412705;28;20030;-57
2023/02/20 08:58:40;;;;;;;14.85;10.80;;;;;;;;;;10411977;28;20026;-58
2023/02/20 09:03:42;;;;;;;16.20;10.50;;;;;;;;;;10411974;28;20037;-57
2023/02/20 09:08:43;;;;;;;18.17;10.88;;;;;;;;;;10411900;28;20026;-57
2023/02/20 09:13:45;;;;;;;13.35;9.95;;;;;;;;;;10411509;28;20060;-57
2023/02/20 09:18:46;;;;;;;15.85;10.07;;;;;;;;;;10411482;28;20025;-58
2023/02/20 09:23:47;;;;;;;12.88;9.40;;;;;;;;;;10410777;28;20029;-57
2023/02/20 09:28:47;;;;;;;16.92;10.88;;;;;;;;;;10411126;28;20029;-58
2023/02/20 09:33:48;;;;;;;14.20;10.15;;;;;;;;;;10410880;28;20485;-58
2023/02/20 09:38:49;;;;;;;14.00;9.77;;;;;;;;;;10410112;28;20527;-58
2023/02/20 09:44:23;;;;;;;13.52;9.88;;;;;;;;;;10409760;28;20485;-58
2023/02/20 09:49:32;;;;;;;14.48;9.38;;;;;;;;;;10403223;28;20164;-58
2023/02/20 09:54:42;;;;;;;14.38;9.30;;;;;;;;;;10408154;28;20021;-58
2023/02/20 09:59:50;;;;;;;14.55;8.95;;;;;;;;;;10408442;28;20045;-58
2023/02/20 10:05:01;;;;;;;11.45;8.82;;;;;;;;;;10408109;28;20029;-57
2023/02/20 10:10:22;;;;;;;11.32;8.75;;;;;;;;;;10409342;28;20436;-58
2023/02/20 10:15:47;;;;;;;13.27;8.93;;;;;;;;;;10408558;28;20036;-58
2023/02/20 10:21:02;;;;;;;12.35;8.70;;;;;;;;;;10408829;28;20033;-57
2023/02/20 10:26:12;;;;;;;11.15;8.63;;;;;;;;;;10405870;28;20476;-57
2023/02/20 10:31:31;;;;;;;14.38;8.82;;;;;;;;;;10407210;28;20026;-57
2023/02/20 10:37:19;;;;;;;11.15;9.00;;;;;;;;;;10417908;23;20623;-68
2023/02/20 10:42:37;;;;;;;12.85;8.45;;;;;;;;;;10406889;28;20041;-64
2023/02/20 10:48:02;;;;;;;13.27;8.35;;;;;;;;;;10375829;28;20033;-64
2023/02/20 10:53:45;;;;;;;11.70;8.57;;;;;;;;;;10366117;28;20026;-64
2023/02/20 10:59:05;;;;;;;10.05;7.65;;;;;;;;;;10363128;28;20018;-64
2023/02/20 11:04:21;;;;;;;11.25;8.48;;;;;;;;;;10366779;28;20030;-64
2023/02/20 11:09:22;;;;;;;9.98;7.97;;;;;;;;;;10366881;28;20128;-64
2023/02/20 11:14:25;;;;;;;11.00;7.95;;;;;;;;;;10366110;28;20030;-64
2023/02/20 11:19:52;;;;;;;9.63;7.78;;;;;;;;;;10366229;28;20057;-68
2023/02/20 11:24:52;;;;;;;10.75;7.90;;;;;;;;;;10358819;28;20040;-67
2023/02/20 11:30:01;;;;;;;9.60;8.07;;;;;;;;;;10366277;28;20029;-65
2023/02/20 11:35:25;;;;;;;10.32;7.78;;;;;;;;;;10364647;28;20125;-68
2023/02/20 11:40:31;;;;;;;10.73;8.45;;;;;;;;;;10363754;28;20397;-68
2023/02/20 11:45:32;;;;;;;9.82;7.28;;;;;;;;;;10361713;28;20030;-67
2023/02/20 11:50:43;;;;;;;10.70;7.68;;;;;;;;;;10365703;28;20032;-67
2023/02/20 11:55:43;;;;;;;13.18;8.13;;;;;;;;;;10365609;28;20064;-64
2023/02/20 12:00:48;;;;;;;8.90;8.00;;;;;;;;;;10365315;28;20113;-64
2023/02/20 12:05:50;;;;;;;9.18;7.55;;;;;;;;;;10365200;28;20049;-68
2023/02/20 12:10:53;;;;;;;10.35;7.93;;;;;;;;;;10364085;28;20030;-65
2023/02/20 12:16:16;;;;;;;8.20;7.13;;;;;;;;;;10366301;28;20063;-68
2023/02/20 12:21:35;;;;;;;9.07;7.40;;;;;;;;;;10372423;28;20022;-68
2023/02/20 12:26:57;;;;;;;12.57;7.72;;;;;;;;;;10372620;28;20034;-68
2023/02/20 12:32:33;;;;;;;10.13;7.47;;;;;;;;;;10367262;28;20049;-68
2023/02/20 12:38:08;;;;;;;8.40;6.90;;;;;;;;;;10363620;28;20116;-68
2023/02/20 12:43:27;;;;;;;9.45;7.80;;;;;;;;;;10363436;28;20034;-67
2023/02/20 12:48:39;;;;;;;9.98;7.75;;;;;;;;;;10361580;28;20105;-66
2023/02/20 12:54:39;;;;;;;10.02;7.85;;;;;;;;;;10366670;28;20060;-67
2023/02/20 13:00:00;;;;;;;10.25;7.82;;;;;;;;;;10347373;28;20121;-68
2023/02/20 13:05:04;;;;;;;9.25;7.03;;;;;;;;;;10364141;28;20026;-67
2023/02/20 13:10:23;;;;;;;12.27;7.03;;;;;;;;;;10370222;28;20474;-67
2023/02/20 13:15:51;;;;;;;7.78;7.00;;;;;;;;;;10368487;28;20037;-68
2023/02/20 13:20:59;;;;;;;9.10;7.30;;;;;;;;;;10369612;28;20061;-65
2023/02/20 13:26:01;;;;;;;9.50;7.30;;;;;;;;;;10365841;28;20397;-67
2023/02/20 13:31:34;;;;;;;9.20;7.35;;;;;;;;;;10366941;28;20034;-65
2023/02/20 13:36:34;;;;;;;10.48;7.40;;;;;;;;;;10366332;28;20053;-67
2023/02/20 13:41:53;;;;;;;9.93;7.45;;;;;;;;;;10367150;28;20022;-66
2023/02/20 13:47:19;;;;;;;8.30;6.70;;;;;;;;;;10364443;28;20034;-64
2023/02/20 13:52:28;;;;;;;8.48;6.70;;;;;;;;;;10365706;28;20489;-65
2023/02/20 13:57:32;;;;;;;7.95;7.07;;;;;;;;;;10367161;28;20030;-64
2023/02/20 14:02:40;;;;;;;8.43;6.88;;;;;;;;;;10368019;28;20026;-67
2023/02/20 14:07:45;;;;;;;7.97;6.55;;;;;;;;;;10368013;28;20030;-68
2023/02/20 14:12:55;;;;;;;8.90;6.63;;;;;;;;;;10367861;28;20478;-68
2023/02/20 14:17:57;;;;;;;8.70;6.75;;;;;;;;;;10353904;28;20489;-64
2023/02/20 14:23:28;;;;;;;9.40;6.80;;;;;;;;;;10361626;28;20038;-67
2023/02/20 14:28:32;;;;;;;7.85;6.55;;;;;;;;;;10364576;28;20166;-66
2023/02/20 14:33:33;;;;;;;10.18;7.65;;;;;;;;;;10362632;28;20034;-64
2023/02/20 14:38:49;;;;;;;11.95;7.20;;;;;;;;;;10364177;28;20050;-67
2023/02/20 14:43:59;;;;;;;7.47;6.63;;;;;;;;;;10364172;28;20077;-67
2023/02/20 14:49:09;;;;;;;9.10;6.70;;;;;;;;;;10365147;28;20025;-68
2023/02/20 14:54:22;;;;;;;8.30;6.75;;;;;;;;;;10363398;28;20194;-66
2023/02/20 14:59:39;;;;;;;11.00;7.00;;;;;;;;;;10366282;28;20041;-66
2023/02/20 15:04:51;;;;;;;7.93;6.38;;;;;;;;;;10366184;28;20105;-68
2023/02/20 15:09:56;;;;;;;12.45;6.40;;;;;;;;;;10362232;28;20034;-66
2023/02/20 15:15:13;;;;;;;7.80;6.68;;;;;;;;;;10365060;28;20026;-67
2023/02/20 15:20:28;;;;;;;9.07;6.10;;;;;;;;;;10365714;28;20022;-68
2023/02/20 15:25:30;;;;;;;10.18;5.68;;;;;;;;;;10364403;28;20100;-68
2023/02/20 15:30:31;;;;;;;7.55;6.00;;;;;;;;;;10365981;28;20026;-68
2023/02/20 15:35:32;;;;;;;8.02;6.20;;;;;;;;;;10363765;28;20057;-68
2023/02/20 15:40:33;;;;;;;7.90;6.20;;;;;;;;;;10365484;28;20421;-69
2023/02/20 15:45:36;;;;;;;6.28;5.68;;;;;;;;;;10363333;28;20034;-68
2023/02/20 15:50:37;;;;;;;9.95;6.38;;;;;;;;;;10366266;28;20367;-69
2023/02/20 15:55:37;;;;;;;7.30;6.32;;;;;;;;;;10372737;28;20042;-68
2023/02/20 16:00:38;;;;;;;9.63;6.18;;;;;;;;;;10359667;28;20033;-69
2023/02/20 16:05:38;;;;;;;8.35;6.30;;;;;;;;;;10369935;28;20033;-68
2023/02/20 16:10:39;;;;;;;8.50;6.05;;;;;;;;;;10372416;28;20081;-69
2023/02/20 16:15:39;;;;;;;8.77;6.20;;;;;;;;;;10372297;28;20026;-68
2023/02/20 16:20:40;;;;;;;8.30;5.93;;;;;;;;;;10371282;28;20029;-68
2023/02/20 16:25:41;;;;;;;8.15;6.25;;;;;;;;;;10370596;28;20030;-63
2023/02/20 16:30:44;;;;;;;10.02;6.47;;;;;;;;;;10350078;28;20030;-67
2023/02/20 16:35:48;;;;;;;8.13;6.50;;;;;;;;;;10366147;28;20096;-68
2023/02/20 16:40:53;;;;;;;9.88;6.60;;;;;;;;;;10367132;28;20091;-68
2023/02/20 16:45:54;;;;;;;7.38;6.20;;;;;;;;;;10366794;28;20026;-68
2023/02/20 16:50:56;;;;;;;10.10;7.00;;;;;;;;;;10342562;28;20474;-68
2023/02/20 16:55:56;;;;;;;8.75;5.80;;;;;;;;;;10334430;28;20218;-66
2023/02/20 17:00:57;;;;;;;9.50;6.55;;;;;;;;;;10339761;28;20327;-65
2023/02/20 17:05:58;;;;;;;9.52;6.78;;;;;;;;;;10368605;28;20386;-68
2023/02/20 17:10:59;;;;;;;9.30;6.40;;;;;;;;;;10369893;28;20474;-66
2023/02/20 17:15:59;;;;;;;8.40;6.95;;;;;;;;;;10368938;28;20022;-67
2023/02/20 17:21:00;;;;;;;12.68;6.57;;;;;;;;;;10366122;28;20032;-68
2023/02/20 17:26:01;;;;;;;11.90;6.93;;;;;;;;;;10368787;28;20890;-70
2023/02/20 17:31:02;;;;;;;7.45;6.15;;;;;;;;;;10368232;28;20485;-69
2023/02/20 17:36:03;;;;;;;9.00;6.57;;;;;;;;;;10368183;28;20049;-66
2023/02/20 17:41:03;;;;;;;10.48;7.00;;;;;;;;;;10361744;28;20052;-68
2023/02/20 17:46:04;;;;;;;10.10;7.03;;;;;;;;;;10367618;28;20113;-70
2023/02/20 17:51:05;;;;;;;8.13;6.28;;;;;;;;;;10367826;28;20058;-69
2023/02/20 17:56:05;;;;;;;15.32;6.82;;;;;;;;;;10366976;28;20026;-63
2023/02/20 18:01:06;;;;;;;15.38;6.68;;;;;;;;;;10365861;28;20030;-64
2023/02/20 18:06:07;;;;;;;10.60;6.97;;;;;;;;;;10365712;28;20370;-66
2023/02/20 18:11:08;;;;;;;13.80;7.65;;;;;;;;;;10367419;28;20030;-64
2023/02/20 18:16:08;;;;;;;18.13;8.70;;;;;;;;;;10366496;28;20038;-70
2023/02/20 18:21:25;;;;;;;16.55;8.30;;;;;;;;;;10361982;28;20048;-71
2023/02/20 18:26:26;;;;;;;21.00;9.23;;;;;;;;;;10366831;28;20038;-70
2023/02/20 18:31:26;;;;;;;19.50;8.50;;;;;;;;;;10361626;28;20096;-71
2023/02/20 18:36:28;;;;;;;12.35;8.07;;;;;;;;;;10366432;28;20050;-70
2023/02/20 18:41:29;;;;;;;19.38;8.90;;;;;;;;;;10367232;28;20042;-70
2023/02/20 18:46:34;;;;;;;19.52;9.05;;;;;;;;;;10364684;28;20029;-68
2023/02/20 18:51:38;;;;;;;17.75;8.70;;;;;;;;;;10365730;28;20058;-71
2023/02/20 18:56:38;;;;;;;15.27;9.38;;;;;;;;;;10358228;28;20121;-69
2023/02/20 19:01:41;;;;;;;18.88;9.98;;;;;;;;;;10358358;28;20037;-69
2023/02/20 19:06:45;;;;;;;18.52;9.73;;;;;;;;;;10365236;28;20101;-70
2023/02/20 19:11:55;;;;;;;17.65;9.90;;;;;;;;;;10363672;28;20032;-70
2023/02/20 19:16:58;;;;;;;19.85;9.60;;;;;;;;;;10365861;28;20021;-71
2023/02/20 19:21:59;;;;;;;21.02;9.57;;;;;;;;;;10364761;28;20494;-65
2023/02/20 19:27:00;;;;;;;20.75;8.63;;;;;;;;;;10368821;28;20033;-68
2023/02/20 19:32:01;;;;;;;17.40;9.13;;;;;;;;;;10373236;28;20038;-64
2023/02/20 19:37:02;;;;;;;12.60;8.30;;;;;;;;;;10369854;28;20037;-71
2023/02/20 19:42:03;;;;;;;20.35;9.15;;;;;;;;;;10369749;28;20037;-64
2023/02/20 19:47:04;;;;;;;13.13;8.32;;;;;;;;;;10371796;28;20065;-66
2023/02/20 19:52:05;;;;;;;15.77;8.35;;;;;;;;;;10370983;28;20120;-65
2023/02/20 19:57:08;;;;;;;13.32;8.05;;;;;;;;;;10370095;28;20026;-67
2023/02/20 20:02:11;;;;;;;14.05;8.15;;;;;;;;;;10367580;28;20026;-65
2023/02/20 20:07:11;;;;;;;15.77;7.88;;;;;;;;;;10368342;28;20034;-67
2023/02/20 20:17:31;;;;;;;15.07;7.68;;;;;;;;;;10369689;28;20029;-69
2023/02/20 20:22:32;;;;;;;11.70;7.82;;;;;;;;;;10370228;28;20429;-64
2023/02/20 20:27:32;;;;;;;15.18;8.55;;;;;;;;;;10368013;28;20088;-64
2023/02/20 20:32:33;;;;;;;13.05;7.78;;;;;;;;;;10366870;28;20021;-65
2023/02/20 20:37:34;;;;;;;12.13;7.32;;;;;;;;;;10367363;28;20042;-69
2023/02/20 20:42:35;;;;;;;14.20;7.70;;;;;;;;;;10369685;28;20026;-65
2023/02/20 20:47:36;;;;;;;12.43;7.63;;;;;;;;;;10363723;28;20391;-64
2023/02/20 20:52:36;;;;;;;12.70;7.80;;;;;;;;;;10370575;28;20034;-71
2023/02/20 20:57:39;;;;;;;10.95;7.47;;;;;;;;;;10370968;28;20024;-64
2023/02/20 21:02:39;;;;;;;12.90;7.60;;;;;;;;;;10366974;28;20034;-69
2023/02/20 21:07:40;;;;;;;12.18;7.22;;;;;;;;;;10371018;28;20382;-66
2023/02/20 21:12:41;;;;;;;13.02;7.90;;;;;;;;;;10370503;28;20466;-70
2023/02/20 21:17:43;;;;;;;10.35;6.60;;;;;;;;;;10369440;28;20034;-63
2023/02/20 21:22:44;;;;;;;12.13;7.53;;;;;;;;;;10368033;28;20574;-67
2023/02/20 21:27:44;;;;;;;11.48;7.47;;;;;;;;;;10364863;28;20026;-62
2023/02/20 21:32:45;;;;;;;15.90;7.40;;;;;;;;;;10365685;28;20089;-69
2023/02/20 21:37:46;;;;;;;11.63;7.35;;;;;;;;;;10368783;28;20038;-63
2023/02/20 21:48:06;;;;;;;10.45;7.20;;;;;;;;;;10362371;28;20374;-63
2023/02/20 21:53:07;;;;;;;9.07;6.93;;;;;;;;;;10368856;28;20026;-71
